FLL weather

Fort Lauderdale Hollywood International Airport
Fort Lauderdale, Florida, United States

Public forecast

Using degrees Fahrenheit for public forecast. Weather courtesy of forecast.io.

METAR (pilot weather report)

Retrieved 2018/06/18 13:53 UTC (58 minutes ago):

KFLL 181353Z VRB06KT 10SM SCT026 SCT060 BKN120 BKN250 31/25 A3010 RMK AO2 SLP192 T03060250

TAF (pilot weather forecast)

Retrieved 2018/06/18 12:07 UTC (3 hours ago):

TAF COR KFLL 181205Z 1812/1918 VRB04KT P6SM SCT020 BKN250 FM181500 08008KT P6SM VCSH SCT030 SCT250 FM181700 11011KT P6SM VCSH SCT025 BKN050 BKN250 FM182300 09009KT P6SM FEW030 SCT060 BKN250 FM190200 VRB05KT P6SM FEW060 BKN250 FM191600 10008KT P6SM FEW025 SCT050